Time;durP1;ratioP1;P1;durP2;ratioP2;P2;SDS_P1;SDS_P2;PMS_P1;PMS_P2;Temp;Humidity;BMP_temperature;BMP_pressure;BME280_temperature;BME280_humidity;BME280_pressure;Samples;Min_cycle;Max_cycle;Signal;HPM_P1;HPM_P2
2022/03/14 00:00:21;;;;;;;0.30;0.10;;;11.20;99.90;;;;;;5030880;28;20037;-73
2022/03/14 00:02:47;;;;;;;0.30;0.10;;;11.20;99.90;;;;;;5030970;28;20135;-73
2022/03/14 00:05:17;;;;;;;0.52;0.10;;;11.20;99.90;;;;;;5027582;28;20033;-73
2022/03/14 00:07:46;;;;;;;0.25;0.10;;;11.20;99.90;;;;;;5011898;28;20418;-74
2022/03/14 00:10:15;;;;;;;0.20;0.10;;;11.20;99.90;;;;;;5014452;28;20030;-73
2022/03/14 00:12:44;;;;;;;0.50;0.13;;;11.10;99.90;;;;;;5031330;28;20136;-73
2022/03/14 00:15:14;;;;;;;1.85;0.65;;;11.10;99.90;;;;;;5027805;28;20553;-73
2022/03/14 00:17:45;;;;;;;0.30;0.10;;;11.10;99.90;;;;;;5010423;28;20061;-74
2022/03/14 00:20:13;;;;;;;0.30;0.10;;;11.00;99.90;;;;;;5030296;28;20017;-73
2022/03/14 00:22:40;;;;;;;0.57;0.10;;;11.00;99.90;;;;;;5027644;28;20044;-73
2022/03/14 00:25:08;;;;;;;0.50;0.20;;;11.00;99.90;;;;;;5029669;28;20029;-73
2022/03/14 00:27:35;;;;;;;0.47;0.20;;;11.00;99.90;;;;;;5022201;28;20096;-73
2022/03/14 00:30:06;;;;;;;0.55;0.20;;;11.00;99.90;;;;;;5013288;28;20440;-73
2022/03/14 00:32:34;;;;;;;0.40;0.20;;;10.90;99.90;;;;;;5024605;28;20041;-73
2022/03/14 00:35:00;;;;;;;0.38;0.15;;;10.90;99.90;;;;;;5032224;28;20029;-73
2022/03/14 00:37:26;;;;;;;0.40;0.10;;;11.00;99.90;;;;;;5030849;28;20120;-74
2022/03/14 00:39:53;;;;;;;0.50;0.20;;;11.00;99.90;;;;;;5024590;28;20469;-73
2022/03/14 00:42:21;;;;;;;1.27;0.13;;;10.90;99.90;;;;;;5031854;28;20316;-75
2022/03/14 00:44:51;;;;;;;0.30;0.10;;;10.90;99.90;;;;;;5026594;28;20021;-73
2022/03/14 00:47:17;;;;;;;0.40;0.10;;;10.90;99.90;;;;;;5028466;28;20433;-73
2022/03/14 00:49:44;;;;;;;1.05;0.10;;;10.90;99.90;;;;;;5027736;28;20029;-73
2022/03/14 00:52:10;;;;;;;0.80;0.28;;;10.80;99.90;;;;;;5023913;28;20026;-74
2022/03/14 00:54:37;;;;;;;0.32;0.15;;;10.80;99.90;;;;;;5023756;28;20039;-74
2022/03/14 00:57:03;;;;;;;0.63;0.20;;;10.70;99.90;;;;;;5033111;28;20025;-73
2022/03/14 00:59:29;;;;;;;0.50;0.20;;;10.70;99.90;;;;;;5028438;28;20076;-73
2022/03/14 01:01:55;;;;;;;0.65;0.20;;;10.60;99.90;;;;;;5011267;28;20026;-74
2022/03/14 01:04:22;;;;;;;0.98;0.10;;;10.70;99.90;;;;;;5025551;28;20044;-73
2022/03/14 01:06:48;;;;;;;0.50;0.20;;;10.70;99.90;;;;;;5027691;28;20154;-73
2022/03/14 01:09:14;;;;;;;0.30;0.17;;;10.70;99.90;;;;;;5027820;28;20061;-73
2022/03/14 01:11:44;;;;;;;0.30;0.15;;;10.70;99.90;;;;;;5030625;28;20034;-73
2022/03/14 01:14:11;;;;;;;0.38;0.15;;;10.70;99.90;;;;;;5022708;28;20112;-73
2022/03/14 01:16:37;;;;;;;0.63;0.20;;;10.70;99.90;;;;;;5014580;28;20116;-73
2022/03/14 01:19:04;;;;;;;0.40;0.10;;;10.70;99.90;;;;;;5012539;28;20116;-72
2022/03/14 01:21:30;;;;;;;0.60;0.20;;;10.70;99.90;;;;;;5014094;28;20022;-73
2022/03/14 01:23:56;;;;;;;0.50;0.10;;;10.70;99.90;;;;;;5032530;28;20087;-74
2022/03/14 01:26:22;;;;;;;0.40;0.10;;;10.70;99.90;;;;;;5031121;28;20043;-73
2022/03/14 01:28:48;;;;;;;0.52;0.20;;;10.70;99.90;;;;;;5013643;28;20470;-73
2022/03/14 01:31:14;;;;;;;0.40;0.20;;;10.70;99.90;;;;;;5030531;28;20025;-73
2022/03/14 01:33:40;;;;;;;0.50;0.20;;;10.70;99.90;;;;;;5034715;28;20045;-74
2022/03/14 01:36:07;;;;;;;0.63;0.20;;;10.70;99.90;;;;;;5027773;28;20021;-74
2022/03/14 01:38:33;;;;;;;0.60;0.20;;;10.70;99.90;;;;;;5030536;28;20263;-73
2022/03/14 01:40:59;;;;;;;0.60;0.20;;;10.70;99.90;;;;;;5032432;28;20702;-73
2022/03/14 01:43:25;;;;;;;0.55;0.20;;;10.60;99.90;;;;;;5004819;28;20025;-73
2022/03/14 01:45:57;;;;;;;0.40;0.20;;;10.60;99.90;;;;;;5025273;28;20041;-73
2022/03/14 01:48:24;;;;;;;0.60;0.20;;;10.60;99.90;;;;;;5024236;28;20469;-73
2022/03/14 01:50:50;;;;;;;0.35;0.20;;;10.60;99.90;;;;;;5025467;28;20087;-73
2022/03/14 01:53:18;;;;;;;0.50;0.20;;;10.60;99.90;;;;;;5030437;28;20093;-73
2022/03/14 01:55:45;;;;;;;0.60;0.20;;;10.60;99.90;;;;;;5025077;28;20033;-74
2022/03/14 01:58:11;;;;;;;0.40;0.10;;;10.60;99.90;;;;;;5032890;28;20029;-73
2022/03/14 02:00:37;;;;;;;0.70;0.20;;;10.60;99.90;;;;;;5025200;28;20025;-73
2022/03/14 02:03:02;;;;;;;0.30;0.20;;;10.60;99.90;;;;;;5025948;28;20044;-73
2022/03/14 02:05:28;;;;;;;0.50;0.20;;;10.60;99.90;;;;;;5030337;28;20030;-73
2022/03/14 02:07:56;;;;;;;0.47;0.20;;;10.60;99.90;;;;;;5013061;28;20033;-73
2022/03/14 02:10:22;;;;;;;0.47;0.10;;;10.60;99.90;;;;;;5030987;28;20032;-73
2022/03/14 02:12:47;;;;;;;0.52;0.20;;;10.50;99.90;;;;;;5032398;28;20045;-73
2022/03/14 02:15:13;;;;;;;0.60;0.20;;;10.50;99.90;;;;;;5034404;28;20099;-73
2022/03/14 02:17:40;;;;;;;0.50;0.20;;;10.60;99.90;;;;;;5029429;28;20033;-73
2022/03/14 02:20:07;;;;;;;0.60;0.20;;;10.50;99.90;;;;;;5025143;28;20032;-73
2022/03/14 02:22:32;;;;;;;0.50;0.10;;;10.60;99.90;;;;;;5030058;28;20030;-73
2022/03/14 02:24:58;;;;;;;0.70;0.20;;;10.50;99.90;;;;;;5027425;28;20032;-73
2022/03/14 02:27:23;;;;;;;0.45;0.20;;;10.60;99.90;;;;;;5028520;28;20029;-73
2022/03/14 02:29:49;;;;;;;0.30;0.20;;;10.50;99.90;;;;;;5026228;28;20498;-74
2022/03/14 02:32:15;;;;;;;0.47;0.20;;;10.50;99.90;;;;;;5029518;28;20044;-73
2022/03/14 02:34:41;;;;;;;0.50;0.20;;;10.50;99.90;;;;;;5009442;28;20041;-73
2022/03/14 02:37:07;;;;;;;0.70;0.30;;;10.50;99.90;;;;;;5029859;28;20029;-73
2022/03/14 02:39:37;;;;;;;0.80;0.20;;;10.50;99.90;;;;;;5029465;28;20283;-73
2022/03/14 02:42:04;;;;;;;0.65;0.20;;;10.50;99.90;;;;;;5030448;28;20025;-74
2022/03/14 02:44:31;;;;;;;0.82;0.25;;;10.50;99.90;;;;;;5027174;28;20507;-73
2022/03/14 02:46:58;;;;;;;0.60;0.22;;;10.50;99.90;;;;;;5029633;28;20107;-73
2022/03/14 02:49:23;;;;;;;0.30;0.13;;;10.50;99.90;;;;;;5032833;28;20103;-74
2022/03/14 02:51:50;;;;;;;0.40;0.10;;;10.50;99.90;;;;;;5010205;28;20038;-74
2022/03/14 02:54:15;;;;;;;0.50;0.20;;;10.50;99.90;;;;;;5029039;28;20075;-73
2022/03/14 02:56:41;;;;;;;0.65;0.20;;;10.50;99.90;;;;;;5032468;28;20061;-73
2022/03/14 02:59:09;;;;;;;0.50;0.20;;;10.40;99.90;;;;;;5030372;28;20041;-74
2022/03/14 03:01:36;;;;;;;0.73;0.20;;;10.40;99.90;;;;;;5028883;28;20032;-73
2022/03/14 03:04:02;;;;;;;0.75;0.20;;;10.40;99.90;;;;;;5030868;28;20026;-73
2022/03/14 03:06:27;;;;;;;0.82;0.30;;;10.40;99.90;;;;;;5030534;28;20022;-73
2022/03/14 03:08:54;;;;;;;0.60;0.22;;;10.30;99.90;;;;;;5028914;28;20034;-73
2022/03/14 03:11:21;;;;;;;0.70;0.28;;;10.30;99.90;;;;;;5032551;28;20040;-73
2022/03/14 03:13:47;;;;;;;0.60;0.30;;;10.30;99.90;;;;;;5030311;28;20102;-74
2022/03/14 03:16:16;;;;;;;0.70;0.30;;;10.30;99.90;;;;;;5010860;28;20709;-73
2022/03/14 03:18:43;;;;;;;0.47;0.20;;;10.20;99.90;;;;;;5012687;28;20040;-73
2022/03/14 03:21:08;;;;;;;0.80;0.30;;;10.20;99.90;;;;;;5010564;28;20030;-73
2022/03/14 03:23:35;;;;;;;1.15;0.57;;;10.20;99.90;;;;;;5028627;28;20033;-74
2022/03/14 03:26:02;;;;;;;0.50;0.30;;;10.20;99.90;;;;;;5032295;28;20469;-73
2022/03/14 03:28:29;;;;;;;0.80;0.30;;;10.20;99.90;;;;;;5033084;28;20041;-73
2022/03/14 03:30:54;;;;;;;1.33;0.20;;;10.20;99.90;;;;;;5029839;28;20108;-73
2022/03/14 03:33:20;;;;;;;1.00;0.38;;;10.20;99.90;;;;;;5029898;28;20171;-73
2022/03/14 03:35:45;;;;;;;0.90;0.40;;;10.20;99.90;;;;;;5032899;28;20040;-74
2022/03/14 03:38:11;;;;;;;0.82;0.30;;;10.20;99.90;;;;;;5028335;28;20432;-73
2022/03/14 03:40:37;;;;;;;1.02;0.35;;;10.20;99.90;;;;;;5025809;28;20036;-74
2022/03/14 03:43:02;;;;;;;0.85;0.30;;;10.20;99.90;;;;;;5028305;28;20026;-74
2022/03/14 03:45:28;;;;;;;0.70;0.20;;;10.20;99.90;;;;;;5027800;28;20022;-73
2022/03/14 03:47:54;;;;;;;1.02;0.30;;;10.10;99.90;;;;;;5034883;28;20029;-73
2022/03/14 03:50:21;;;;;;;1.00;0.30;;;10.10;99.90;;;;;;5031935;28;20516;-73
2022/03/14 03:52:46;;;;;;;1.30;0.30;;;10.10;99.90;;;;;;5023939;28;20033;-73
2022/03/14 03:55:13;;;;;;;1.05;0.38;;;10.10;99.90;;;;;;5027642;28;20029;-73
2022/03/14 03:57:38;;;;;;;0.75;0.30;;;10.10;99.90;;;;;;5031683;28;20033;-73
2022/03/14 04:00:06;;;;;;;1.42;0.40;;;10.10;99.90;;;;;;5024173;28;20026;-75
2022/03/14 04:02:39;;;;;;;1.00;0.38;;;10.10;99.90;;;;;;5029808;28;20044;-73
2022/03/14 04:05:06;;;;;;;1.05;0.30;;;10.10;99.90;;;;;;5028863;28;20029;-73
2022/03/14 04:07:32;;;;;;;0.93;0.40;;;10.00;99.90;;;;;;5026075;28;20029;-74
2022/03/14 04:09:59;;;;;;;1.45;0.50;;;10.00;99.90;;;;;;5030169;28;20057;-75
2022/03/14 04:12:26;;;;;;;0.90;0.35;;;10.00;99.90;;;;;;5029349;28;20021;-75
2022/03/14 04:14:52;;;;;;;1.20;0.40;;;9.90;99.90;;;;;;5029622;28;20032;-73
2022/03/14 04:17:19;;;;;;;1.42;0.40;;;9.90;99.90;;;;;;5027488;28;20041;-74
2022/03/14 04:19:45;;;;;;;0.95;0.40;;;10.00;99.90;;;;;;5027641;28;20060;-74
2022/03/14 04:22:14;;;;;;;1.10;0.30;;;10.00;99.90;;;;;;5026766;28;20497;-73
2022/03/14 04:24:39;;;;;;;1.13;0.40;;;10.00;99.90;;;;;;5011540;28;20033;-74
2022/03/14 04:27:05;;;;;;;1.00;0.40;;;10.00;99.90;;;;;;5028164;28;20029;-74
2022/03/14 04:29:31;;;;;;;1.35;0.40;;;9.90;99.90;;;;;;5010847;28;20055;-74
2022/03/14 04:31:56;;;;;;;1.15;0.40;;;9.90;99.90;;;;;;5007325;28;20390;-74
2022/03/14 04:34:22;;;;;;;0.80;0.30;;;9.90;99.90;;;;;;5023422;28;20401;-74
2022/03/14 04:36:50;;;;;;;0.80;0.32;;;10.00;99.90;;;;;;5031454;28;20111;-74
2022/03/14 04:39:19;;;;;;;1.27;0.40;;;9.90;99.90;;;;;;5022166;28;20036;-74
2022/03/14 04:41:46;;;;;;;0.80;0.30;;;10.00;99.90;;;;;;5040406;28;20033;-73
2022/03/14 04:44:12;;;;;;;0.90;0.40;;;10.00;99.90;;;;;;5029857;28;20032;-74
2022/03/14 04:46:37;;;;;;;0.95;0.40;;;9.90;99.90;;;;;;5023935;28;20050;-75
2022/03/14 04:49:04;;;;;;;1.00;0.30;;;9.90;99.90;;;;;;5028112;28;20033;-73
2022/03/14 04:51:33;;;;;;;1.33;0.30;;;9.90;99.90;;;;;;5013383;28;20383;-73
2022/03/14 04:53:59;;;;;;;1.20;0.30;;;9.90;99.90;;;;;;5045264;28;20096;-73
2022/03/14 04:56:25;;;;;;;1.23;0.30;;;9.90;99.90;;;;;;5033010;28;20049;-73
2022/03/14 04:58:51;;;;;;;1.15;0.40;;;9.80;99.90;;;;;;5031793;28;20044;-74
2022/03/14 05:01:20;;;;;;;1.75;0.40;;;9.80;99.90;;;;;;5034904;28;20040;-74
2022/03/14 05:03:45;;;;;;;1.00;0.40;;;9.70;99.90;;;;;;5011385;28;20033;-74
2022/03/14 05:06:11;;;;;;;1.45;0.50;;;9.70;99.90;;;;;;5030545;28;20025;-73
2022/03/14 05:08:36;;;;;;;1.23;0.40;;;9.80;99.90;;;;;;5027219;28;20120;-73
2022/03/14 05:11:04;;;;;;;1.85;0.73;;;9.80;99.90;;;;;;5033913;28;20029;-74
2022/03/14 05:13:30;;;;;;;1.10;0.50;;;9.80;99.90;;;;;;5028200;28;20044;-73
2022/03/14 05:15:55;;;;;;;2.83;0.60;;;9.70;99.90;;;;;;5033048;28;20433;-73
2022/03/14 05:18:21;;;;;;;1.23;0.50;;;9.70;99.90;;;;;;5042877;28;20041;-73
2022/03/14 05:20:47;;;;;;;1.35;0.60;;;9.70;99.90;;;;;;5027454;28;20071;-74
2022/03/14 05:23:12;;;;;;;1.50;0.60;;;9.70;99.90;;;;;;5034197;28;20417;-75
2022/03/14 05:25:38;;;;;;;1.63;0.65;;;9.70;99.90;;;;;;5030022;28;20032;-75
2022/03/14 05:28:03;;;;;;;1.20;0.60;;;9.70;99.90;;;;;;5031162;28;20041;-75
2022/03/14 05:30:29;;;;;;;1.65;0.75;;;9.70;99.90;;;;;;5031699;28;20034;-75
2022/03/14 05:32:55;;;;;;;1.30;0.60;;;9.70;99.90;;;;;;5029631;28;20091;-75
2022/03/14 05:35:21;;;;;;;1.77;0.85;;;9.60;99.90;;;;;;5034416;28;20382;-75
2022/03/14 05:37:47;;;;;;;1.60;0.70;;;9.60;99.90;;;;;;5014598;28;20048;-76
2022/03/14 05:40:15;;;;;;;1.88;0.70;;;9.50;99.90;;;;;;5046994;28;20028;-75
2022/03/14 05:42:45;;;;;;;1.60;0.70;;;9.50;99.90;;;;;;5014753;28;20041;-76
2022/03/14 05:45:12;;;;;;;4.25;2.90;;;9.50;99.90;;;;;;5030783;28;20025;-76
2022/03/14 05:47:38;;;;;;;3.15;2.60;;;9.30;99.90;;;;;;5032058;28;20127;-74
2022/03/14 05:50:04;;;;;;;3.30;2.70;;;9.20;99.90;;;;;;5028028;28;20029;-74
2022/03/14 05:52:30;;;;;;;2.25;1.55;;;9.10;99.90;;;;;;5024944;28;20116;-75
2022/03/14 05:54:55;;;;;;;1.90;1.45;;;9.20;99.90;;;;;;5031843;28;20120;-74
2022/03/14 05:57:21;;;;;;;2.95;1.73;;;9.20;99.90;;;;;;5034934;28;20466;-74
2022/03/14 05:59:48;;;;;;;2.40;1.67;;;9.20;99.90;;;;;;5026691;28;20036;-75
2022/03/14 06:02:22;;;;;;;2.85;1.70;;;9.20;99.90;;;;;;5011792;28;20029;-74
2022/03/14 06:04:53;;;;;;;3.08;1.60;;;9.20;99.90;;;;;;5015878;28;20046;-75
2022/03/14 06:07:21;;;;;;;2.55;1.00;;;9.20;99.90;;;;;;5031316;28;20036;-75
2022/03/14 06:09:49;;;;;;;1.83;0.98;;;9.20;99.90;;;;;;5032127;28;20524;-74
2022/03/14 06:12:25;;;;;;;1.50;0.90;;;9.20;99.90;;;;;;5029382;28;20061;-75
2022/03/14 06:14:56;;;;;;;1.90;1.00;;;9.20;99.90;;;;;;5046521;28;20061;-76
2022/03/14 06:17:22;;;;;;;2.13;1.05;;;9.20;99.90;;;;;;5025774;28;20154;-76
2022/03/14 06:19:48;;;;;;;2.38;1.38;;;9.20;99.90;;;;;;5007964;28;20563;-73
2022/03/14 06:22:16;;;;;;;2.40;1.35;;;9.20;99.90;;;;;;5008701;28;20040;-74
2022/03/14 06:24:41;;;;;;;2.42;1.55;;;9.30;99.90;;;;;;5029123;28;20037;-76
2022/03/14 06:27:07;;;;;;;3.45;2.08;;;9.20;99.90;;;;;;5027845;28;20374;-75
2022/03/14 06:29:33;;;;;;;3.70;3.00;;;9.30;99.90;;;;;;5029028;28;20026;-76
2022/03/14 06:31:59;;;;;;;4.45;3.33;;;9.30;99.90;;;;;;5030417;28;20064;-75
2022/03/14 06:34:26;;;;;;;5.65;4.63;;;9.30;99.90;;;;;;5028012;28;20037;-74
2022/03/14 06:36:52;;;;;;;4.57;2.80;;;9.30;99.90;;;;;;5028577;28;20029;-75
2022/03/14 06:39:18;;;;;;;3.35;2.78;;;9.20;99.90;;;;;;5031766;28;20075;-75
2022/03/14 06:41:44;;;;;;;5.10;2.72;;;9.30;99.90;;;;;;5033126;28;20033;-75
2022/03/14 06:44:12;;;;;;;2.33;1.80;;;9.30;99.90;;;;;;5030364;28;21140;-75
2022/03/14 06:46:38;;;;;;;3.95;2.53;;;9.30;99.90;;;;;;5013365;28;20156;-75
2022/03/14 06:49:03;;;;;;;3.00;2.28;;;9.30;99.90;;;;;;5030641;28;20123;-75
2022/03/14 06:51:29;;;;;;;3.28;2.17;;;9.30;99.90;;;;;;5011781;28;20097;-77
2022/03/14 06:53:55;;;;;;;3.95;3.13;;;9.40;99.90;;;;;;5033727;28;20029;-75
2022/03/14 06:56:21;;;;;;;4.40;3.15;;;9.30;99.90;;;;;;5027675;28;20212;-74
2022/03/14 06:58:46;;;;;;;4.75;3.47;;;9.40;99.90;;;;;;5028314;28;20048;-74
2022/03/14 07:01:12;;;;;;;4.55;3.50;;;9.40;99.90;;;;;;5028561;28;20045;-75
2022/03/14 07:03:38;;;;;;;5.18;4.55;;;9.40;99.90;;;;;;5009806;28;20037;-75
2022/03/14 07:06:04;;;;;;;5.72;4.72;;;9.30;99.90;;;;;;5029174;28;20163;-78
2022/03/14 07:08:30;;;;;;;5.45;4.60;;;9.30;99.90;;;;;;5012837;28;20474;-76
2022/03/14 07:10:55;;;;;;;5.40;4.53;;;9.30;99.90;;;;;;5028747;28;20033;-78
2022/03/14 07:13:21;;;;;;;5.70;4.63;;;9.30;99.90;;;;;;5028421;28;20056;-75
2022/03/14 07:15:47;;;;;;;6.57;5.28;;;9.40;99.90;;;;;;5031062;28;20025;-75
2022/03/14 07:18:12;;;;;;;9.38;6.97;;;9.30;99.90;;;;;;5026596;28;20036;-74
2022/03/14 07:20:39;;;;;;;8.38;7.53;;;9.40;99.90;;;;;;5027260;28;20041;-77
2022/03/14 07:23:07;;;;;;;8.73;6.88;;;9.40;99.90;;;;;;5022940;28;20029;-76
2022/03/14 07:25:37;;;;;;;7.25;6.55;;;9.40;99.90;;;;;;5027382;28;20021;-77
2022/03/14 07:28:08;;;;;;;8.23;6.78;;;9.40;99.90;;;;;;5028888;28;20418;-75
2022/03/14 07:30:40;;;;;;;10.50;7.85;;;9.40;99.90;;;;;;5025177;28;20120;-76
2022/03/14 07:33:06;;;;;;;9.07;6.38;;;9.40;99.90;;;;;;5026225;28;20379;-75
2022/03/14 07:35:32;;;;;;;9.88;7.18;;;9.40;99.90;;;;;;5024230;28;20025;-76
2022/03/14 07:37:58;;;;;;;10.38;7.05;;;9.40;99.90;;;;;;5029250;28;20073;-75
2022/03/14 07:40:24;;;;;;;8.95;6.78;;;9.40;99.90;;;;;;5031220;28;20022;-76
2022/03/14 07:42:52;;;;;;;7.18;5.82;;;9.50;99.90;;;;;;5031304;28;20025;-75
2022/03/14 07:45:24;;;;;;;7.03;5.32;;;9.50;99.90;;;;;;5039217;28;20041;-76
2022/03/14 07:47:49;;;;;;;9.05;5.70;;;9.50;99.90;;;;;;5029118;28;20524;-76
2022/03/14 07:50:16;;;;;;;8.25;6.18;;;9.50;99.90;;;;;;5027392;28;20029;-75
2022/03/14 07:52:43;;;;;;;10.93;5.47;;;9.60;99.90;;;;;;5027082;28;20040;-75
2022/03/14 07:55:10;;;;;;;6.32;5.07;;;9.60;99.90;;;;;;5029553;28;20017;-75
2022/03/14 07:57:36;;;;;;;11.40;7.40;;;9.70;99.90;;;;;;5044716;28;20032;-75
2022/03/14 08:00:09;;;;;;;6.68;5.35;;;9.70;99.90;;;;;;5021802;28;20032;-75
2022/03/14 08:02:41;;;;;;;5.57;4.18;;;9.70;99.90;;;;;;5028593;28;20473;-75
2022/03/14 08:05:08;;;;;;;6.13;4.85;;;9.80;99.90;;;;;;5031626;28;20029;-77
2022/03/14 08:07:34;;;;;;;5.53;3.88;;;9.80;99.90;;;;;;5027474;28;20485;-74
2022/03/14 08:10:04;;;;;;;9.15;6.88;;;9.90;99.90;;;;;;5027645;28;20040;-79
2022/03/14 08:12:31;;;;;;;8.25;5.43;;;9.80;99.90;;;;;;5044149;28;20029;-74
2022/03/14 08:14:57;;;;;;;8.18;5.82;;;9.90;99.90;;;;;;5026998;28;20206;-75
2022/03/14 08:17:23;;;;;;;5.70;4.78;;;10.00;99.90;;;;;;5029729;28;20136;-75
2022/03/14 08:19:49;;;;;;;9.75;6.97;;;10.10;99.90;;;;;;5011441;28;20084;-75
2022/03/14 08:22:14;;;;;;;12.35;10.15;;;10.10;99.90;;;;;;5028770;28;20487;-75
2022/03/14 08:24:40;;;;;;;8.60;6.82;;;9.90;99.90;;;;;;5030897;28;20034;-75
2022/03/14 08:27:05;;;;;;;8.27;7.18;;;10.00;99.90;;;;;;5029033;28;20398;-75
2022/03/14 08:29:32;;;;;;;9.18;7.22;;;10.10;99.90;;;;;;5026597;28;20276;-75
2022/03/14 08:31:58;;;;;;;13.18;10.18;;;10.10;99.90;;;;;;5010775;28;20021;-76
2022/03/14 08:34:25;;;;;;;16.35;11.77;;;10.00;99.90;;;;;;5026943;28;20033;-75
2022/03/14 08:36:51;;;;;;;15.80;12.32;;;9.90;99.90;;;;;;5026542;28;20160;-76
2022/03/14 08:39:16;;;;;;;19.02;14.15;;;9.90;99.90;;;;;;5026957;28;20116;-75
2022/03/14 08:41:42;;;;;;;16.83;13.10;;;9.80;99.90;;;;;;5020403;28;20456;-75
2022/03/14 08:44:07;;;;;;;14.57;11.98;;;9.80;99.90;;;;;;5026441;28;20040;-76
2022/03/14 08:46:35;;;;;;;19.30;14.25;;;9.90;99.90;;;;;;5031929;28;20041;-76
2022/03/14 08:49:01;;;;;;;18.23;13.98;;;9.90;99.90;;;;;;5027832;28;20033;-77
2022/03/14 08:51:27;;;;;;;21.02;15.43;;;9.90;99.90;;;;;;5027412;28;20091;-75
2022/03/14 08:53:53;;;;;;;18.13;13.55;;;9.90;99.90;;;;;;5029841;28;20387;-75
2022/03/14 08:56:21;;;;;;;18.73;15.18;;;10.00;99.90;;;;;;5008465;28;20100;-77
2022/03/14 08:58:46;;;;;;;23.20;15.68;;;10.00;99.90;;;;;;5028081;28;20116;-76
2022/03/14 09:01:15;;;;;;;20.98;16.25;;;10.00;99.90;;;;;;5027071;28;20026;-76
2022/03/14 09:03:42;;;;;;;17.52;13.05;;;10.00;99.90;;;;;;5027166;28;20037;-75
2022/03/14 09:06:07;;;;;;;18.95;14.30;;;10.10;99.90;;;;;;4994874;28;20076;-76
2022/03/14 09:08:34;;;;;;;16.65;12.93;;;10.20;99.90;;;;;;5043547;28;20025;-75
2022/03/14 09:11:01;;;;;;;15.88;12.07;;;10.40;99.90;;;;;;5028889;28;20117;-77
2022/03/14 09:13:28;;;;;;;16.73;13.77;;;10.30;99.90;;;;;;5026647;28;20482;-77
2022/03/14 09:15:53;;;;;;;17.75;14.50;;;10.30;99.90;;;;;;5029496;28;20028;-75
2022/03/14 09:18:20;;;;;;;14.68;11.40;;;10.30;99.90;;;;;;5023763;28;20033;-76
2022/03/14 09:20:48;;;;;;;11.63;9.32;;;10.30;99.90;;;;;;5028523;28;20022;-78
2022/03/14 09:23:13;;;;;;;17.42;13.45;;;10.40;99.90;;;;;;5026961;28;20031;-75
2022/03/14 09:25:39;;;;;;;14.45;11.27;;;10.20;99.90;;;;;;5027047;28;20444;-78
2022/03/14 09:28:05;;;;;;;21.10;13.35;;;10.10;99.90;;;;;;5042623;28;22764;-78
2022/03/14 09:30:31;;;;;;;16.27;12.95;;;10.10;99.90;;;;;;5026257;28;20036;-76
2022/03/14 09:32:57;;;;;;;13.77;12.25;;;10.30;99.90;;;;;;5006550;28;20034;-78
2022/03/14 09:35:24;;;;;;;14.32;10.70;;;10.40;99.90;;;;;;5025066;28;20025;-77
2022/03/14 09:37:50;;;;;;;15.48;11.77;;;10.60;99.90;;;;;;5030254;28;20117;-77
2022/03/14 09:40:19;;;;;;;20.85;14.65;;;10.50;99.90;;;;;;5022954;28;20044;-77
2022/03/14 09:42:47;;;;;;;21.08;14.40;;;10.30;99.90;;;;;;5028142;28;20116;-76
2022/03/14 09:45:14;;;;;;;17.50;14.65;;;10.20;99.90;;;;;;5046804;28;20107;-77
2022/03/14 09:47:51;;;;;;;21.90;16.02;;;10.10;99.90;;;;;;5030851;28;20144;-78
2022/03/14 09:50:30;;;;;;;19.02;14.15;;;10.10;99.90;;;;;;5005334;28;20033;-78
2022/03/14 09:52:56;;;;;;;19.85;16.05;;;10.20;99.90;;;;;;5043639;28;20034;-78
2022/03/14 09:55:22;;;;;;;19.65;15.65;;;10.10;99.90;;;;;;4999438;28;20049;-75
2022/03/14 09:57:48;;;;;;;20.52;15.52;;;10.10;99.90;;;;;;5024263;28;20030;-75
2022/03/14 10:00:14;;;;;;;18.77;13.43;;;10.10;99.90;;;;;;5029758;28;20389;-77
2022/03/14 10:02:41;;;;;;;19.80;13.80;;;10.30;99.90;;;;;;5030983;28;20452;-77
2022/03/14 10:05:08;;;;;;;21.63;17.25;;;10.40;99.90;;;;;;5027514;28;20068;-76
2022/03/14 10:07:39;;;;;;;21.35;15.00;;;10.20;99.90;;;;;;5031191;28;20033;-76
2022/03/14 10:10:07;;;;;;;15.40;12.57;;;10.40;99.90;;;;;;5026105;28;20029;-75
2022/03/14 10:12:33;;;;;;;14.30;11.75;;;10.70;99.90;;;;;;5030957;28;20017;-77
2022/03/14 10:15:04;;;;;;;25.95;16.98;;;10.80;99.90;;;;;;5025228;28;20397;-77
2022/03/14 10:17:32;;;;;;;24.13;17.23;;;10.50;99.90;;;;;;5029217;28;20082;-76
2022/03/14 10:20:00;;;;;;;22.60;17.38;;;10.40;99.90;;;;;;5030505;28;20029;-77
2022/03/14 10:22:36;;;;;;;22.15;16.00;;;10.50;99.90;;;;;;5012340;28;20033;-76
2022/03/14 10:25:21;;;;;;;21.50;17.23;;;10.60;99.90;;;;;;5029797;28;20033;-76
2022/03/14 10:27:49;;;;;;;23.55;17.20;;;10.70;99.90;;;;;;5029481;28;20401;-76
2022/03/14 10:30:32;;;;;;;19.73;16.02;;;10.70;99.90;;;;;;5031286;28;20051;-77
2022/03/14 10:33:23;;;;;;;19.02;16.13;;;10.60;99.90;;;;;;5030303;28;20507;-76
2022/03/14 10:35:49;;;;;;;19.95;16.33;;;10.90;99.90;;;;;;5027981;28;20368;-76
2022/03/14 10:38:16;;;;;;;20.95;14.20;;;11.00;99.90;;;;;;5030792;28;20477;-76
2022/03/14 10:40:45;;;;;;;22.92;17.20;;;11.10;99.90;;;;;;5027661;28;20030;-77
2022/03/14 10:43:27;;;;;;;24.75;17.88;;;11.30;99.90;;;;;;5030756;28;20040;-77
2022/03/14 10:45:54;;;;;;;20.40;15.90;;;11.50;99.90;;;;;;5029274;28;20393;-77
2022/03/14 10:48:41;;;;;;;21.73;16.15;;;11.60;99.90;;;;;;5024190;28;20279;-76
2022/03/14 10:51:09;;;;;;;17.98;14.95;;;11.60;99.90;;;;;;5028733;28;20025;-76
2022/03/14 10:53:41;;;;;;;17.73;13.73;;;11.60;99.90;;;;;;5028191;28;20117;-77
2022/03/14 10:56:06;;;;;;;17.77;13.18;;;11.80;99.90;;;;;;5032558;28;20378;-77
2022/03/14 10:58:33;;;;;;;20.23;14.65;;;11.90;99.90;;;;;;5025755;28;20104;-77
2022/03/14 11:01:05;;;;;;;23.13;16.95;;;12.30;99.90;;;;;;5028231;28;20025;-78
2022/03/14 11:03:41;;;;;;;20.40;16.05;;;12.50;99.90;;;;;;5028696;28;20037;-76
2022/03/14 11:06:10;;;;;;;20.88;13.73;;;12.40;99.90;;;;;;5028630;28;20052;-78
2022/03/14 11:08:48;;;;;;;18.50;12.88;;;13.20;99.90;;;;;;5044287;28;20010;-77
2022/03/14 11:11:22;;;;;;;15.60;10.23;;;13.70;99.90;;;;;;5025381;28;20041;-77
2022/03/14 11:13:55;;;;;;;15.88;9.10;;;14.20;99.90;;;;;;5028625;28;20111;-77
2022/03/14 11:16:23;;;;;;;13.07;10.82;;;13.70;99.90;;;;;;5044072;28;20030;-79
2022/03/14 11:18:49;;;;;;;19.55;13.25;;;13.10;99.90;;;;;;5040623;28;20034;-77
2022/03/14 11:21:18;;;;;;;20.45;13.18;;;12.70;99.90;;;;;;5026844;28;20025;-76
2022/03/14 11:23:45;;;;;;;16.52;13.25;;;12.80;99.90;;;;;;5029863;28;20128;-77
2022/03/14 11:26:13;;;;;;;13.52;9.65;;;12.80;99.90;;;;;;5008759;28;20037;-76
2022/03/14 11:28:41;;;;;;;12.45;9.73;;;12.90;99.90;;;;;;5019693;28;20029;-77
2022/03/14 11:31:07;;;;;;;14.43;10.75;;;12.80;99.90;;;;;;5029577;28;20067;-77
2022/03/14 11:33:35;;;;;;;17.92;11.82;;;13.00;99.90;;;;;;5024273;28;20136;-76
2022/03/14 11:36:02;;;;;;;15.93;10.18;;;13.10;99.90;;;;;;5028951;28;20036;-77
2022/03/14 11:38:29;;;;;;;12.00;8.98;;;13.50;99.90;;;;;;5025398;28;20178;-77
2022/03/14 11:40:55;;;;;;;15.20;9.40;;;13.30;99.90;;;;;;5040145;28;20029;-78
2022/03/14 11:43:21;;;;;;;11.55;8.75;;;13.20;99.90;;;;;;5008135;28;20026;-76
2022/03/14 11:45:47;;;;;;;12.32;7.95;;;13.20;99.90;;;;;;5028221;28;20064;-76
2022/03/14 11:48:14;;;;;;;15.63;8.13;;;13.10;99.90;;;;;;5026820;28;20075;-76
2022/03/14 11:50:41;;;;;;;8.45;6.68;;;13.30;99.90;;;;;;5022123;28;20046;-77
2022/03/14 11:53:07;;;;;;;12.75;8.65;;;13.10;99.90;;;;;;5026361;28;20248;-77
2022/03/14 11:55:34;;;;;;;16.52;9.93;;;12.70;99.90;;;;;;5023949;28;20067;-78
2022/03/14 11:58:00;;;;;;;15.18;9.65;;;12.70;99.90;;;;;;5025028;28;20485;-78
2022/03/14 12:00:27;;;;;;;15.48;10.25;;;12.40;99.90;;;;;;5038095;28;20029;-77
2022/03/14 12:03:01;;;;;;;15.18;10.68;;;12.30;99.90;;;;;;5026266;28;20072;-78
2022/03/14 12:05:35;;;;;;;16.60;11.70;;;12.80;99.90;;;;;;5007191;28;20030;-77
2022/03/14 12:08:13;;;;;;;18.52;11.30;;;12.60;99.90;;;;;;5025648;28;20477;-76
2022/03/14 12:10:39;;;;;;;18.20;11.50;;;12.50;99.90;;;;;;5031834;28;20417;-77
2022/03/14 12:13:06;;;;;;;17.75;11.82;;;12.30;99.90;;;;;;5024930;28;20037;-77
2022/03/14 12:15:43;;;;;;;14.93;10.48;;;12.50;99.90;;;;;;5026370;28;20122;-78
2022/03/14 12:18:24;;;;;;;16.73;10.80;;;12.40;99.90;;;;;;5026134;28;20033;-77
2022/03/14 12:20:59;;;;;;;14.30;9.70;;;12.60;99.90;;;;;;5016757;28;20389;-77
2022/03/14 12:23:33;;;;;;;10.15;7.78;;;12.90;99.90;;;;;;5019648;28;20472;-77
2022/03/14 12:26:23;;;;;;;13.57;9.93;;;13.10;99.90;;;;;;5022998;28;20497;-77
2022/03/14 12:28:49;;;;;;;13.48;10.50;;;13.00;99.90;;;;;;5007788;28;20525;-77
2022/03/14 12:31:17;;;;;;;14.43;10.20;;;12.70;99.90;;;;;;5040229;28;20088;-78
2022/03/14 12:33:45;;;;;;;16.15;10.13;;;12.60;99.90;;;;;;5039776;28;20489;-78
2022/03/14 12:36:22;;;;;;;20.42;12.73;;;12.30;99.90;;;;;;5025006;28;20021;-77
2022/03/14 12:39:09;;;;;;;18.10;12.90;;;12.10;99.90;;;;;;5017652;28;20481;-78
2022/03/14 12:41:36;;;;;;;15.07;11.23;;;11.90;99.90;;;;;;5016890;28;20534;-77
2022/03/14 12:44:14;;;;;;;15.35;9.50;;;11.90;99.90;;;;;;5029894;28;20377;-78